sensor_id;sensor_type;location;lat;lon;timestamp;P1;durP1;ratioP1;P2;durP2;ratioP2
19754;SDS011;10036;47.812;9.274;2024-03-22T00:01:05;9.50;;;5.40;;
19754;SDS011;10036;47.812;9.274;2024-03-22T00:03:33;10.23;;;5.57;;
19754;SDS011;10036;47.812;9.274;2024-03-22T00:05:59;7.03;;;5.32;;
19754;SDS011;10036;47.812;9.274;2024-03-22T00:08:26;7.95;;;5.35;;
19754;SDS011;10036;47.812;9.274;2024-03-22T00:10:51;9.77;;;5.68;;
19754;SDS011;10036;47.812;9.274;2024-03-22T00:13:18;10.43;;;5.72;;
19754;SDS011;10036;47.812;9.274;2024-03-22T00:15:44;9.57;;;5.57;;
19754;SDS011;10036;47.812;9.274;2024-03-22T00:18:11;9.32;;;5.93;;
19754;SDS011;10036;47.812;9.274;2024-03-22T00:20:38;11.10;;;6.18;;
19754;SDS011;10036;47.812;9.274;2024-03-22T00:23:05;8.65;;;6.10;;
19754;SDS011;10036;47.812;9.274;2024-03-22T00:25:31;11.85;;;6.13;;
19754;SDS011;10036;47.812;9.274;2024-03-22T00:27:58;10.70;;;6.22;;
19754;SDS011;10036;47.812;9.274;2024-03-22T00:30:24;12.27;;;6.20;;
19754;SDS011;10036;47.812;9.274;2024-03-22T00:32:51;8.73;;;6.28;;
19754;SDS011;10036;47.812;9.274;2024-03-22T00:35:16;8.13;;;6.13;;
19754;SDS011;10036;47.812;9.274;2024-03-22T00:37:45;6.38;;;5.30;;
19754;SDS011;10036;47.812;9.274;2024-03-22T00:40:11;7.97;;;5.70;;
19754;SDS011;10036;47.812;9.274;2024-03-22T00:42:38;9.05;;;5.45;;
19754;SDS011;10036;47.812;9.274;2024-03-22T00:45:04;11.52;;;6.10;;
19754;SDS011;10036;47.812;9.274;2024-03-22T00:47:32;9.43;;;6.05;;
19754;SDS011;10036;47.812;9.274;2024-03-22T00:49:58;13.10;;;6.22;;
19754;SDS011;10036;47.812;9.274;2024-03-22T00:52:26;8.20;;;5.85;;
19754;SDS011;10036;47.812;9.274;2024-03-22T00:54:54;7.65;;;5.82;;
19754;SDS011;10036;47.812;9.274;2024-03-22T00:57:20;6.95;;;5.38;;
19754;SDS011;10036;47.812;9.274;2024-03-22T00:59:47;8.52;;;5.88;;
19754;SDS011;10036;47.812;9.274;2024-03-22T01:02:14;9.00;;;6.00;;
19754;SDS011;10036;47.812;9.274;2024-03-22T01:04:40;8.35;;;6.20;;
19754;SDS011;10036;47.812;9.274;2024-03-22T01:07:06;10.05;;;7.00;;
19754;SDS011;10036;47.812;9.274;2024-03-22T01:09:32;11.35;;;6.53;;
19754;SDS011;10036;47.812;9.274;2024-03-22T01:12:00;11.60;;;7.50;;
19754;SDS011;10036;47.812;9.274;2024-03-22T01:14:26;10.27;;;7.10;;
19754;SDS011;10036;47.812;9.274;2024-03-22T01:16:53;11.52;;;7.47;;
19754;SDS011;10036;47.812;9.274;2024-03-22T01:19:20;10.05;;;6.30;;
19754;SDS011;10036;47.812;9.274;2024-03-22T01:21:48;10.13;;;6.97;;
19754;SDS011;10036;47.812;9.274;2024-03-22T01:24:13;14.32;;;8.40;;
19754;SDS011;10036;47.812;9.274;2024-03-22T01:26:40;12.90;;;7.93;;
19754;SDS011;10036;47.812;9.274;2024-03-22T01:29:08;11.02;;;7.60;;
19754;SDS011;10036;47.812;9.274;2024-03-22T01:31:35;9.82;;;7.60;;
19754;SDS011;10036;47.812;9.274;2024-03-22T01:34:01;10.63;;;7.13;;
19754;SDS011;10036;47.812;9.274;2024-03-22T01:36:28;10.82;;;6.53;;
19754;SDS011;10036;47.812;9.274;2024-03-22T01:38:54;11.75;;;7.40;;
19754;SDS011;10036;47.812;9.274;2024-03-22T01:41:21;8.68;;;6.53;;
19754;SDS011;10036;47.812;9.274;2024-03-22T01:43:46;11.93;;;7.40;;
19754;SDS011;10036;47.812;9.274;2024-03-22T01:46:15;11.35;;;6.40;;
19754;SDS011;10036;47.812;9.274;2024-03-22T01:48:40;8.70;;;6.30;;
19754;SDS011;10036;47.812;9.274;2024-03-22T01:51:07;8.57;;;6.30;;
19754;SDS011;10036;47.812;9.274;2024-03-22T01:53:34;8.52;;;6.32;;
19754;SDS011;10036;47.812;9.274;2024-03-22T01:56:03;11.65;;;7.15;;
19754;SDS011;10036;47.812;9.274;2024-03-22T01:58:30;13.50;;;7.20;;
19754;SDS011;10036;47.812;9.274;2024-03-22T02:00:57;10.05;;;7.00;;
19754;SDS011;10036;47.812;9.274;2024-03-22T02:03:25;8.60;;;6.50;;
19754;SDS011;10036;47.812;9.274;2024-03-22T02:05:52;11.30;;;7.40;;
19754;SDS011;10036;47.812;9.274;2024-03-22T02:08:18;10.48;;;7.18;;
19754;SDS011;10036;47.812;9.274;2024-03-22T02:10:45;9.07;;;6.85;;
19754;SDS011;10036;47.812;9.274;2024-03-22T02:13:12;10.80;;;7.22;;
19754;SDS011;10036;47.812;9.274;2024-03-22T02:15:39;10.45;;;6.90;;
19754;SDS011;10036;47.812;9.274;2024-03-22T02:18:04;13.02;;;7.50;;
19754;SDS011;10036;47.812;9.274;2024-03-22T02:20:33;9.32;;;7.28;;
19754;SDS011;10036;47.812;9.274;2024-03-22T02:22:59;9.68;;;6.30;;
19754;SDS011;10036;47.812;9.274;2024-03-22T02:25:27;11.27;;;7.05;;
19754;SDS011;10036;47.812;9.274;2024-03-22T02:27:53;13.25;;;7.43;;
19754;SDS011;10036;47.812;9.274;2024-03-22T02:30:19;9.80;;;6.45;;
19754;SDS011;10036;47.812;9.274;2024-03-22T02:32:45;10.70;;;6.90;;
19754;SDS011;10036;47.812;9.274;2024-03-22T02:35:12;9.40;;;6.25;;
19754;SDS011;10036;47.812;9.274;2024-03-22T02:37:38;8.57;;;6.10;;
19754;SDS011;10036;47.812;9.274;2024-03-22T02:40:06;11.48;;;6.65;;
19754;SDS011;10036;47.812;9.274;2024-03-22T02:42:34;6.95;;;5.90;;
19754;SDS011;10036;47.812;9.274;2024-03-22T02:45:00;9.10;;;6.60;;
19754;SDS011;10036;47.812;9.274;2024-03-22T02:47:26;9.30;;;6.50;;
19754;SDS011;10036;47.812;9.274;2024-03-22T02:49:53;8.93;;;6.32;;
19754;SDS011;10036;47.812;9.274;2024-03-22T02:52:19;8.82;;;6.68;;
19754;SDS011;10036;47.812;9.274;2024-03-22T02:54:46;10.63;;;6.78;;
19754;SDS011;10036;47.812;9.274;2024-03-22T02:57:12;7.22;;;5.75;;
19754;SDS011;10036;47.812;9.274;2024-03-22T02:59:40;11.25;;;5.95;;
19754;SDS011;10036;47.812;9.274;2024-03-22T03:02:06;8.00;;;5.70;;
19754;SDS011;10036;47.812;9.274;2024-03-22T03:04:33;10.65;;;6.47;;
19754;SDS011;10036;47.812;9.274;2024-03-22T03:06:59;8.80;;;5.85;;
19754;SDS011;10036;47.812;9.274;2024-03-22T03:09:26;7.95;;;5.80;;
19754;SDS011;10036;47.812;9.274;2024-03-22T03:11:52;9.30;;;6.25;;
19754;SDS011;10036;47.812;9.274;2024-03-22T03:14:19;8.10;;;5.88;;
19754;SDS011;10036;47.812;9.274;2024-03-22T03:16:46;8.15;;;6.22;;
19754;SDS011;10036;47.812;9.274;2024-03-22T03:19:13;7.53;;;5.80;;
19754;SDS011;10036;47.812;9.274;2024-03-22T03:21:38;9.63;;;6.45;;
19754;SDS011;10036;47.812;9.274;2024-03-22T03:24:05;6.88;;;5.85;;
19754;SDS011;10036;47.812;9.274;2024-03-22T03:26:31;8.80;;;7.10;;
19754;SDS011;10036;47.812;9.274;2024-03-22T03:28:58;8.70;;;6.28;;
19754;SDS011;10036;47.812;9.274;2024-03-22T03:31:24;8.73;;;6.30;;
19754;SDS011;10036;47.812;9.274;2024-03-22T03:33:52;10.05;;;7.55;;
19754;SDS011;10036;47.812;9.274;2024-03-22T03:36:18;9.50;;;6.68;;
19754;SDS011;10036;47.812;9.274;2024-03-22T03:38:45;9.75;;;6.30;;
19754;SDS011;10036;47.812;9.274;2024-03-22T03:41:11;9.73;;;6.85;;
19754;SDS011;10036;47.812;9.274;2024-03-22T03:43:37;8.27;;;6.60;;
19754;SDS011;10036;47.812;9.274;2024-03-22T03:46:03;9.68;;;6.70;;
19754;SDS011;10036;47.812;9.274;2024-03-22T03:48:30;8.93;;;6.28;;
19754;SDS011;10036;47.812;9.274;2024-03-22T03:50:58;9.70;;;6.50;;
19754;SDS011;10036;47.812;9.274;2024-03-22T03:53:28;9.65;;;6.70;;
19754;SDS011;10036;47.812;9.274;2024-03-22T03:55:54;12.68;;;7.45;;
19754;SDS011;10036;47.812;9.274;2024-03-22T03:58:20;9.88;;;6.60;;
19754;SDS011;10036;47.812;9.274;2024-03-22T04:00:46;9.35;;;6.13;;
19754;SDS011;10036;47.812;9.274;2024-03-22T04:03:13;6.72;;;5.82;;
19754;SDS011;10036;47.812;9.274;2024-03-22T04:05:39;8.43;;;6.40;;
19754;SDS011;10036;47.812;9.274;2024-03-22T04:08:08;13.32;;;7.80;;
19754;SDS011;10036;47.812;9.274;2024-03-22T04:10:34;23.40;;;11.73;;
19754;SDS011;10036;47.812;9.274;2024-03-22T04:13:00;18.05;;;9.73;;
19754;SDS011;10036;47.812;9.274;2024-03-22T04:15:27;15.07;;;8.25;;
19754;SDS011;10036;47.812;9.274;2024-03-22T04:17:55;11.90;;;7.35;;
19754;SDS011;10036;47.812;9.274;2024-03-22T04:20:22;11.32;;;7.47;;
19754;SDS011;10036;47.812;9.274;2024-03-22T04:22:49;9.57;;;7.00;;
19754;SDS011;10036;47.812;9.274;2024-03-22T04:25:18;12.65;;;7.93;;
19754;SDS011;10036;47.812;9.274;2024-03-22T04:27:45;11.40;;;7.05;;
19754;SDS011;10036;47.812;9.274;2024-03-22T04:30:11;10.13;;;6.50;;
19754;SDS011;10036;47.812;9.274;2024-03-22T04:32:38;10.15;;;6.85;;
19754;SDS011;10036;47.812;9.274;2024-03-22T04:35:04;10.30;;;7.72;;
19754;SDS011;10036;47.812;9.274;2024-03-22T04:37:32;12.73;;;7.38;;
19754;SDS011;10036;47.812;9.274;2024-03-22T04:39:59;10.95;;;7.18;;
19754;SDS011;10036;47.812;9.274;2024-03-22T04:42:27;10.10;;;7.30;;
19754;SDS011;10036;47.812;9.274;2024-03-22T04:44:54;12.80;;;7.68;;
19754;SDS011;10036;47.812;9.274;2024-03-22T04:47:21;12.93;;;7.55;;
19754;SDS011;10036;47.812;9.274;2024-03-22T04:49:47;9.38;;;7.20;;
19754;SDS011;10036;47.812;9.274;2024-03-22T04:52:13;12.57;;;7.65;;
19754;SDS011;10036;47.812;9.274;2024-03-22T04:54:39;11.45;;;7.35;;
19754;SDS011;10036;47.812;9.274;2024-03-22T04:57:06;12.07;;;7.57;;
19754;SDS011;10036;47.812;9.274;2024-03-22T04:59:33;12.13;;;7.40;;
19754;SDS011;10036;47.812;9.274;2024-03-22T05:02:00;11.88;;;8.18;;
19754;SDS011;10036;47.812;9.274;2024-03-22T05:04:27;10.82;;;7.53;;
19754;SDS011;10036;47.812;9.274;2024-03-22T05:06:53;15.02;;;8.60;;
19754;SDS011;10036;47.812;9.274;2024-03-22T05:09:20;12.90;;;7.72;;
19754;SDS011;10036;47.812;9.274;2024-03-22T05:11:46;11.98;;;7.32;;
19754;SDS011;10036;47.812;9.274;2024-03-22T05:14:15;10.27;;;7.00;;
19754;SDS011;10036;47.812;9.274;2024-03-22T05:16:42;14.95;;;7.22;;
19754;SDS011;10036;47.812;9.274;2024-03-22T05:19:09;12.32;;;7.68;;
19754;SDS011;10036;47.812;9.274;2024-03-22T05:21:35;10.52;;;7.30;;
19754;SDS011;10036;47.812;9.274;2024-03-22T05:24:02;10.10;;;7.05;;
19754;SDS011;10036;47.812;9.274;2024-03-22T05:26:28;11.85;;;7.97;;
19754;SDS011;10036;47.812;9.274;2024-03-22T05:28:57;14.48;;;8.52;;
19754;SDS011;10036;47.812;9.274;2024-03-22T05:31:23;13.40;;;9.43;;
19754;SDS011;10036;47.812;9.274;2024-03-22T05:33:51;12.65;;;9.43;;
19754;SDS011;10036;47.812;9.274;2024-03-22T05:36:17;11.95;;;9.52;;
19754;SDS011;10036;47.812;9.274;2024-03-22T05:38:44;12.43;;;8.93;;
19754;SDS011;10036;47.812;9.274;2024-03-22T05:41:09;11.77;;;8.90;;
19754;SDS011;10036;47.812;9.274;2024-03-22T05:43:36;13.38;;;8.60;;
19754;SDS011;10036;47.812;9.274;2024-03-22T05:46:02;11.75;;;8.63;;
19754;SDS011;10036;47.812;9.274;2024-03-22T05:48:29;11.27;;;7.53;;
19754;SDS011;10036;47.812;9.274;2024-03-22T05:50:56;9.75;;;7.43;;
19754;SDS011;10036;47.812;9.274;2024-03-22T05:53:23;10.32;;;7.13;;
19754;SDS011;10036;47.812;9.274;2024-03-22T05:55:49;13.05;;;8.10;;
19754;SDS011;10036;47.812;9.274;2024-03-22T05:58:16;9.40;;;7.25;;
19754;SDS011;10036;47.812;9.274;2024-03-22T06:00:42;10.00;;;7.40;;
19754;SDS011;10036;47.812;9.274;2024-03-22T06:03:09;12.38;;;7.53;;
19754;SDS011;10036;47.812;9.274;2024-03-22T06:05:35;11.75;;;8.05;;
19754;SDS011;10036;47.812;9.274;2024-03-22T06:08:05;13.50;;;8.02;;
19754;SDS011;10036;47.812;9.274;2024-03-22T06:10:31;14.20;;;8.15;;
19754;SDS011;10036;47.812;9.274;2024-03-22T06:12:58;10.00;;;6.93;;
19754;SDS011;10036;47.812;9.274;2024-03-22T06:15:24;9.60;;;7.18;;
19754;SDS011;10036;47.812;9.274;2024-03-22T06:17:51;11.63;;;7.80;;
19754;SDS011;10036;47.812;9.274;2024-03-22T06:20:18;10.02;;;7.43;;
19754;SDS011;10036;47.812;9.274;2024-03-22T06:22:45;10.65;;;7.35;;
19754;SDS011;10036;47.812;9.274;2024-03-22T06:25:13;8.48;;;6.38;;
19754;SDS011;10036;47.812;9.274;2024-03-22T06:27:39;11.77;;;6.95;;
19754;SDS011;10036;47.812;9.274;2024-03-22T06:30:06;9.77;;;7.15;;
19754;SDS011;10036;47.812;9.274;2024-03-22T06:32:32;8.57;;;6.88;;
19754;SDS011;10036;47.812;9.274;2024-03-22T06:34:59;11.95;;;7.15;;
19754;SDS011;10036;47.812;9.274;2024-03-22T06:37:25;9.52;;;7.68;;
19754;SDS011;10036;47.812;9.274;2024-03-22T06:39:52;11.95;;;7.82;;
19754;SDS011;10036;47.812;9.274;2024-03-22T06:42:19;9.57;;;7.00;;
19754;SDS011;10036;47.812;9.274;2024-03-22T06:44:46;15.43;;;7.03;;
19754;SDS011;10036;47.812;9.274;2024-03-22T06:47:12;9.40;;;6.82;;
19754;SDS011;10036;47.812;9.274;2024-03-22T06:49:39;9.07;;;7.20;;
19754;SDS011;10036;47.812;9.274;2024-03-22T06:52:05;9.45;;;7.45;;
19754;SDS011;10036;47.812;9.274;2024-03-22T06:54:31;10.32;;;6.60;;
19754;SDS011;10036;47.812;9.274;2024-03-22T06:56:57;9.73;;;6.60;;
19754;SDS011;10036;47.812;9.274;2024-03-22T06:59:25;10.82;;;7.20;;
19754;SDS011;10036;47.812;9.274;2024-03-22T07:01:51;11.70;;;6.50;;
19754;SDS011;10036;47.812;9.274;2024-03-22T07:04:18;9.63;;;6.22;;
19754;SDS011;10036;47.812;9.274;2024-03-22T07:06:44;10.18;;;6.68;;
19754;SDS011;10036;47.812;9.274;2024-03-22T07:09:11;9.70;;;7.00;;
19754;SDS011;10036;47.812;9.274;2024-03-22T07:11:37;7.57;;;6.22;;
19754;SDS011;10036;47.812;9.274;2024-03-22T07:14:04;8.80;;;6.28;;
19754;SDS011;10036;47.812;9.274;2024-03-22T07:16:31;9.05;;;5.88;;
19754;SDS011;10036;47.812;9.274;2024-03-22T07:18:58;7.65;;;5.47;;
19754;SDS011;10036;47.812;9.274;2024-03-22T07:21:24;8.60;;;6.40;;
19754;SDS011;10036;47.812;9.274;2024-03-22T07:23:50;8.30;;;6.22;;
19754;SDS011;10036;47.812;9.274;2024-03-22T07:26:16;8.07;;;6.47;;
19754;SDS011;10036;47.812;9.274;2024-03-22T07:28:43;9.35;;;5.82;;
19754;SDS011;10036;47.812;9.274;2024-03-22T07:31:09;7.93;;;5.63;;
19754;SDS011;10036;47.812;9.274;2024-03-22T07:33:37;7.68;;;6.10;;
19754;SDS011;10036;47.812;9.274;2024-03-22T07:36:04;7.05;;;5.70;;
19754;SDS011;10036;47.812;9.274;2024-03-22T07:38:32;9.95;;;6.15;;
19754;SDS011;10036;47.812;9.274;2024-03-22T07:40:58;8.38;;;6.18;;
19754;SDS011;10036;47.812;9.274;2024-03-22T07:43:25;6.88;;;5.25;;
19754;SDS011;10036;47.812;9.274;2024-03-22T07:45:51;8.10;;;6.07;;
19754;SDS011;10036;47.812;9.274;2024-03-22T07:48:17;9.95;;;5.63;;
19754;SDS011;10036;47.812;9.274;2024-03-22T07:50:45;8.70;;;6.15;;
19754;SDS011;10036;47.812;9.274;2024-03-22T07:53:12;9.48;;;6.00;;
19754;SDS011;10036;47.812;9.274;2024-03-22T07:55:38;6.70;;;5.53;;
19754;SDS011;10036;47.812;9.274;2024-03-22T07:58:05;7.60;;;5.50;;
19754;SDS011;10036;47.812;9.274;2024-03-22T08:00:31;7.85;;;5.70;;
19754;SDS011;10036;47.812;9.274;2024-03-22T08:02:58;7.20;;;5.90;;
19754;SDS011;10036;47.812;9.274;2024-03-22T08:05:24;6.32;;;4.90;;
19754;SDS011;10036;47.812;9.274;2024-03-22T08:07:52;9.68;;;5.82;;
19754;SDS011;10036;47.812;9.274;2024-03-22T08:10:18;7.65;;;5.22;;
19754;SDS011;10036;47.812;9.274;2024-03-22T08:12:45;6.38;;;5.15;;
19754;SDS011;10036;47.812;9.274;2024-03-22T08:15:11;6.32;;;5.70;;
19754;SDS011;10036;47.812;9.274;2024-03-22T08:17:38;5.88;;;5.28;;
19754;SDS011;10036;47.812;9.274;2024-03-22T08:20:04;9.27;;;5.20;;
19754;SDS011;10036;47.812;9.274;2024-03-22T08:22:32;5.60;;;4.85;;
19754;SDS011;10036;47.812;9.274;2024-03-22T08:24:59;8.50;;;5.15;;
19754;SDS011;10036;47.812;9.274;2024-03-22T08:27:27;5.82;;;5.22;;
19754;SDS011;10036;47.812;9.274;2024-03-22T08:29:53;5.60;;;4.93;;
19754;SDS011;10036;47.812;9.274;2024-03-22T08:32:20;5.90;;;5.30;;
19754;SDS011;10036;47.812;9.274;2024-03-22T08:34:46;8.07;;;5.32;;
19754;SDS011;10036;47.812;9.274;2024-03-22T08:37:12;9.70;;;5.47;;
19754;SDS011;10036;47.812;9.274;2024-03-22T08:39:38;9.05;;;5.63;;
19754;SDS011;10036;47.812;9.274;2024-03-22T08:42:07;7.20;;;5.13;;
19754;SDS011;10036;47.812;9.274;2024-03-22T08:44:34;7.00;;;5.03;;
19754;SDS011;10036;47.812;9.274;2024-03-22T08:47:01;7.95;;;5.38;;
19754;SDS011;10036;47.812;9.274;2024-03-22T08:49:27;7.60;;;5.10;;
19754;SDS011;10036;47.812;9.274;2024-03-22T08:51:55;6.82;;;5.15;;
19754;SDS011;10036;47.812;9.274;2024-03-22T08:54:21;5.88;;;5.28;;
19754;SDS011;10036;47.812;9.274;2024-03-22T08:56:48;6.63;;;5.18;;
19754;SDS011;10036;47.812;9.274;2024-03-22T08:59:15;7.38;;;4.90;;
19754;SDS011;10036;47.812;9.274;2024-03-22T09:01:42;8.50;;;5.30;;
19754;SDS011;10036;47.812;9.274;2024-03-22T09:04:08;6.88;;;4.80;;
19754;SDS011;10036;47.812;9.274;2024-03-22T09:06:35;6.38;;;4.45;;
19754;SDS011;10036;47.812;9.274;2024-03-22T09:09:01;6.95;;;4.85;;
19754;SDS011;10036;47.812;9.274;2024-03-22T09:11:29;5.95;;;4.80;;
19754;SDS011;10036;47.812;9.274;2024-03-22T09:13:55;7.57;;;5.00;;
19754;SDS011;10036;47.812;9.274;2024-03-22T09:16:24;5.38;;;4.70;;
19754;SDS011;10036;47.812;9.274;2024-03-22T09:18:50;6.97;;;4.82;;
19754;SDS011;10036;47.812;9.274;2024-03-22T09:21:17;6.22;;;4.43;;
19754;SDS011;10036;47.812;9.274;2024-03-22T09:23:42;6.40;;;5.10;;
19754;SDS011;10036;47.812;9.274;2024-03-22T09:26:09;5.20;;;4.63;;
19754;SDS011;10036;47.812;9.274;2024-03-22T09:28:35;6.38;;;4.32;;
19754;SDS011;10036;47.812;9.274;2024-03-22T09:31:05;7.72;;;4.72;;
19754;SDS011;10036;47.812;9.274;2024-03-22T09:33:33;8.25;;;4.38;;
19754;SDS011;10036;47.812;9.274;2024-03-22T09:36:00;8.07;;;4.72;;
19754;SDS011;10036;47.812;9.274;2024-03-22T09:38:26;5.13;;;4.40;;
19754;SDS011;10036;47.812;9.274;2024-03-22T09:40:53;6.28;;;4.35;;
19754;SDS011;10036;47.812;9.274;2024-03-22T09:43:20;5.13;;;4.20;;
19754;SDS011;10036;47.812;9.274;2024-03-22T09:45:47;5.80;;;3.58;;
19754;SDS011;10036;47.812;9.274;2024-03-22T09:48:14;4.07;;;3.38;;
19754;SDS011;10036;47.812;9.274;2024-03-22T09:50:44;5.93;;;3.63;;
19754;SDS011;10036;47.812;9.274;2024-03-22T09:53:12;4.07;;;3.60;;
19754;SDS011;10036;47.812;9.274;2024-03-22T09:55:39;6.10;;;3.75;;
19754;SDS011;10036;47.812;9.274;2024-03-22T09:58:08;6.22;;;4.05;;
19754;SDS011;10036;47.812;9.274;2024-03-22T10:00:35;6.82;;;3.58;;
19754;SDS011;10036;47.812;9.274;2024-03-22T10:03:01;5.90;;;3.33;;
19754;SDS011;10036;47.812;9.274;2024-03-22T10:05:30;3.70;;;3.08;;
19754;SDS011;10036;47.812;9.274;2024-03-22T10:07:57;6.50;;;3.60;;
19754;SDS011;10036;47.812;9.274;2024-03-22T10:10:24;6.13;;;3.30;;
19754;SDS011;10036;47.812;9.274;2024-03-22T10:12:50;7.03;;;3.65;;
19754;SDS011;10036;47.812;9.274;2024-03-22T10:15:19;5.85;;;3.20;;
19754;SDS011;10036;47.812;9.274;2024-03-22T10:17:45;5.60;;;3.53;;
19754;SDS011;10036;47.812;9.274;2024-03-22T10:20:12;6.10;;;3.58;;
19754;SDS011;10036;47.812;9.274;2024-03-22T10:22:41;5.60;;;3.63;;
19754;SDS011;10036;47.812;9.274;2024-03-22T10:25:10;8.48;;;3.42;;
19754;SDS011;10036;47.812;9.274;2024-03-22T10:27:37;5.93;;;3.85;;
19754;SDS011;10036;47.812;9.274;2024-03-22T10:30:05;5.50;;;3.30;;
19754;SDS011;10036;47.812;9.274;2024-03-22T10:32:34;3.53;;;3.13;;
19754;SDS011;10036;47.812;9.274;2024-03-22T10:35:02;6.63;;;3.38;;
19754;SDS011;10036;47.812;9.274;2024-03-22T10:37:30;6.45;;;3.20;;
19754;SDS011;10036;47.812;9.274;2024-03-22T10:39:58;3.97;;;3.05;;
19754;SDS011;10036;47.812;9.274;2024-03-22T10:42:28;5.55;;;3.50;;
19754;SDS011;10036;47.812;9.274;2024-03-22T10:44:55;4.75;;;3.00;;
19754;SDS011;10036;47.812;9.274;2024-03-22T10:47:21;5.07;;;2.95;;
19754;SDS011;10036;47.812;9.274;2024-03-22T10:49:53;5.28;;;2.83;;
19754;SDS011;10036;47.812;9.274;2024-03-22T10:52:25;6.38;;;3.15;;
19754;SDS011;10036;47.812;9.274;2024-03-22T10:54:53;4.18;;;3.38;;
19754;SDS011;10036;47.812;9.274;2024-03-22T10:57:20;3.67;;;2.80;;
19754;SDS011;10036;47.812;9.274;2024-03-22T10:59:48;4.60;;;3.20;;
19754;SDS011;10036;47.812;9.274;2024-03-22T11:02:19;4.93;;;2.83;;
19754;SDS011;10036;47.812;9.274;2024-03-22T11:04:53;4.25;;;3.15;;
19754;SDS011;10036;47.812;9.274;2024-03-22T11:07:21;4.95;;;2.85;;
19754;SDS011;10036;47.812;9.274;2024-03-22T11:09:51;5.60;;;2.92;;
19754;SDS011;10036;47.812;9.274;2024-03-22T11:12:18;3.80;;;2.78;;
19754;SDS011;10036;47.812;9.274;2024-03-22T11:14:46;3.78;;;2.60;;
19754;SDS011;10036;47.812;9.274;2024-03-22T11:17:15;3.85;;;2.80;;
19754;SDS011;10036;47.812;9.274;2024-03-22T11:19:42;2.72;;;2.53;;
19754;SDS011;10036;47.812;9.274;2024-03-22T11:22:08;4.78;;;2.75;;
19754;SDS011;10036;47.812;9.274;2024-03-22T11:24:37;2.92;;;2.40;;
19754;SDS011;10036;47.812;9.274;2024-03-22T11:27:03;3.35;;;2.47;;
19754;SDS011;10036;47.812;9.274;2024-03-22T11:29:30;4.47;;;2.35;;
19754;SDS011;10036;47.812;9.274;2024-03-22T11:31:57;2.85;;;2.30;;
19754;SDS011;10036;47.812;9.274;2024-03-22T11:34:24;3.75;;;2.78;;
19754;SDS011;10036;47.812;9.274;2024-03-22T11:36:50;4.38;;;2.35;;
19754;SDS011;10036;47.812;9.274;2024-03-22T11:39:17;2.85;;;2.30;;
19754;SDS011;10036;47.812;9.274;2024-03-22T11:41:43;5.15;;;2.38;;
19754;SDS011;10036;47.812;9.274;2024-03-22T11:44:13;4.28;;;2.70;;
19754;SDS011;10036;47.812;9.274;2024-03-22T11:46:40;3.05;;;2.45;;
19754;SDS011;10036;47.812;9.274;2024-03-22T11:49:09;1.90;;;1.80;;
19754;SDS011;10036;47.812;9.274;2024-03-22T11:51:35;3.38;;;2.10;;
19754;SDS011;10036;47.812;9.274;2024-03-22T11:54:03;5.07;;;2.42;;
19754;SDS011;10036;47.812;9.274;2024-03-22T11:56:31;3.08;;;2.20;;
19754;SDS011;10036;47.812;9.274;2024-03-22T11:58:57;3.80;;;2.47;;
19754;SDS011;10036;47.812;9.274;2024-03-22T12:01:25;4.05;;;2.30;;
19754;SDS011;10036;47.812;9.274;2024-03-22T12:03:52;3.10;;;2.10;;
19754;SDS011;10036;47.812;9.274;2024-03-22T12:06:21;3.13;;;1.60;;
19754;SDS011;10036;47.812;9.274;2024-03-22T12:08:47;2.70;;;1.88;;
19754;SDS011;10036;47.812;9.274;2024-03-22T12:11:14;3.55;;;2.00;;
19754;SDS011;10036;47.812;9.274;2024-03-22T12:13:40;2.45;;;2.03;;
19754;SDS011;10036;47.812;9.274;2024-03-22T12:16:07;3.13;;;2.50;;
19754;SDS011;10036;47.812;9.274;2024-03-22T12:18:33;2.75;;;2.10;;
19754;SDS011;10036;47.812;9.274;2024-03-22T12:21:00;5.35;;;2.35;;
19754;SDS011;10036;47.812;9.274;2024-03-22T12:23:27;4.53;;;2.50;;
19754;SDS011;10036;47.812;9.274;2024-03-22T12:25:54;3.25;;;1.90;;
19754;SDS011;10036;47.812;9.274;2024-03-22T12:28:21;2.58;;;2.13;;
19754;SDS011;10036;47.812;9.274;2024-03-22T12:30:49;3.13;;;2.45;;
19754;SDS011;10036;47.812;9.274;2024-03-22T12:33:15;3.53;;;2.30;;
19754;SDS011;10036;47.812;9.274;2024-03-22T12:35:42;3.55;;;2.00;;
19754;SDS011;10036;47.812;9.274;2024-03-22T12:38:08;2.40;;;1.83;;
19754;SDS011;10036;47.812;9.274;2024-03-22T12:40:40;2.55;;;2.10;;
19754;SDS011;10036;47.812;9.274;2024-03-22T12:43:06;3.08;;;2.10;;
19754;SDS011;10036;47.812;9.274;2024-03-22T12:45:35;5.50;;;2.13;;
19754;SDS011;10036;47.812;9.274;2024-03-22T12:48:01;4.55;;;2.10;;
19754;SDS011;10036;47.812;9.274;2024-03-22T12:50:29;2.83;;;2.45;;
19754;SDS011;10036;47.812;9.274;2024-03-22T12:52:55;2.78;;;2.20;;
19754;SDS011;10036;47.812;9.274;2024-03-22T12:55:22;2.33;;;1.90;;
19754;SDS011;10036;47.812;9.274;2024-03-22T12:57:49;3.58;;;2.42;;
19754;SDS011;10036;47.812;9.274;2024-03-22T13:00:16;4.93;;;2.50;;
19754;SDS011;10036;47.812;9.274;2024-03-22T13:02:43;2.83;;;2.08;;
19754;SDS011;10036;47.812;9.274;2024-03-22T13:05:10;4.22;;;2.50;;
19754;SDS011;10036;47.812;9.274;2024-03-22T13:07:36;3.08;;;1.98;;
19754;SDS011;10036;47.812;9.274;2024-03-22T13:10:03;2.47;;;1.80;;
19754;SDS011;10036;47.812;9.274;2024-03-22T13:12:30;2.72;;;1.98;;
19754;SDS011;10036;47.812;9.274;2024-03-22T13:15:01;1.98;;;1.77;;
19754;SDS011;10036;47.812;9.274;2024-03-22T13:17:27;6.38;;;2.28;;
19754;SDS011;10036;47.812;9.274;2024-03-22T13:19:54;4.45;;;2.30;;
19754;SDS011;10036;47.812;9.274;2024-03-22T13:22:19;4.50;;;2.20;;
19754;SDS011;10036;47.812;9.274;2024-03-22T13:24:46;1.85;;;1.63;;
19754;SDS011;10036;47.812;9.274;2024-03-22T13:27:14;4.90;;;2.05;;
19754;SDS011;10036;47.812;9.274;2024-03-22T13:29:41;2.08;;;1.85;;
19754;SDS011;10036;47.812;9.274;2024-03-22T13:32:08;2.08;;;1.80;;
19754;SDS011;10036;47.812;9.274;2024-03-22T13:34:35;3.58;;;1.92;;
19754;SDS011;10036;47.812;9.274;2024-03-22T13:37:01;2.13;;;1.75;;
19754;SDS011;10036;47.812;9.274;2024-03-22T13:39:29;2.33;;;1.75;;
19754;SDS011;10036;47.812;9.274;2024-03-22T13:41:55;5.10;;;1.70;;
19754;SDS011;10036;47.812;9.274;2024-03-22T13:44:22;2.70;;;1.80;;
19754;SDS011;10036;47.812;9.274;2024-03-22T13:46:49;1.70;;;1.60;;
19754;SDS011;10036;47.812;9.274;2024-03-22T13:49:18;2.03;;;1.60;;
19754;SDS011;10036;47.812;9.274;2024-03-22T13:51:46;2.25;;;1.92;;
19754;SDS011;10036;47.812;9.274;2024-03-22T13:54:14;2.90;;;1.77;;
19754;SDS011;10036;47.812;9.274;2024-03-22T13:56:40;5.35;;;1.85;;
19754;SDS011;10036;47.812;9.274;2024-03-22T13:59:07;3.10;;;1.90;;
19754;SDS011;10036;47.812;9.274;2024-03-22T14:01:33;3.60;;;1.48;;
19754;SDS011;10036;47.812;9.274;2024-03-22T14:04:01;2.90;;;2.20;;
19754;SDS011;10036;47.812;9.274;2024-03-22T14:06:29;2.10;;;1.58;;
19754;SDS011;10036;47.812;9.274;2024-03-22T14:08:57;2.65;;;1.70;;
19754;SDS011;10036;47.812;9.274;2024-03-22T14:11:26;2.05;;;1.70;;
19754;SDS011;10036;47.812;9.274;2024-03-22T14:13:53;4.20;;;1.80;;
19754;SDS011;10036;47.812;9.274;2024-03-22T14:16:19;2.50;;;1.90;;
19754;SDS011;10036;47.812;9.274;2024-03-22T14:18:46;2.60;;;1.70;;
19754;SDS011;10036;47.812;9.274;2024-03-22T14:21:12;3.28;;;1.80;;
19754;SDS011;10036;47.812;9.274;2024-03-22T14:23:45;1.58;;;1.45;;
19754;SDS011;10036;47.812;9.274;2024-03-22T14:26:11;1.90;;;1.67;;
19754;SDS011;10036;47.812;9.274;2024-03-22T14:28:38;3.78;;;1.60;;
19754;SDS011;10036;47.812;9.274;2024-03-22T14:31:05;4.05;;;1.60;;
19754;SDS011;10036;47.812;9.274;2024-03-22T14:33:33;2.00;;;1.70;;
19754;SDS011;10036;47.812;9.274;2024-03-22T14:35:59;1.98;;;1.35;;
19754;SDS011;10036;47.812;9.274;2024-03-22T14:38:26;2.03;;;1.60;;
19754;SDS011;10036;47.812;9.274;2024-03-22T14:40:53;3.30;;;1.40;;